sensor_id;sensor_type;location;lat;lon;timestamp;pressure;altitude;pressure_sealevel;temperature;humidity
78409;BME280;67697;50.750;-3.270;2023-04-25T00:00:55;100890.56;;;10.85;48.41
78409;BME280;67697;50.750;-3.270;2023-04-25T00:03:21;100890.68;;;10.48;48.61
78409;BME280;67697;50.750;-3.270;2023-04-25T00:05:46;100893.00;;;9.96;50.00
78409;BME280;67697;50.750;-3.270;2023-04-25T00:08:14;100894.59;;;10.83;48.24
78409;BME280;67697;50.750;-3.270;2023-04-25T00:10:37;100889.26;;;11.37;47.36
78409;BME280;67697;50.750;-3.270;2023-04-25T00:13:02;100890.06;;;11.06;47.74
78409;BME280;67697;50.750;-3.270;2023-04-25T00:15:27;100889.81;;;10.91;48.06
78409;BME280;67697;50.750;-3.270;2023-04-25T00:17:53;100891.78;;;10.97;47.89
78409;BME280;67697;50.750;-3.270;2023-04-25T00:20:18;100893.30;;;11.01;48.09
78409;BME280;67697;50.750;-3.270;2023-04-25T00:22:43;100891.09;;;9.16;51.46
78409;BME280;67697;50.750;-3.270;2023-04-25T00:25:09;100896.06;;;8.38;53.25
78409;BME280;67697;50.750;-3.270;2023-04-25T00:27:34;100895.00;;;9.34;51.17
78409;BME280;67697;50.750;-3.270;2023-04-25T00:30:00;100900.96;;;10.30;48.81
78409;BME280;67697;50.750;-3.270;2023-04-25T00:32:25;100900.24;;;10.51;47.91
78409;BME280;67697;50.750;-3.270;2023-04-25T00:34:50;100901.39;;;8.50;51.68
78409;BME280;67697;50.750;-3.270;2023-04-25T00:37:16;100902.27;;;9.94;49.30
78409;BME280;67697;50.750;-3.270;2023-04-25T00:39:41;100907.20;;;9.45;50.04
78409;BME280;67697;50.750;-3.270;2023-04-25T00:42:08;100914.37;;;8.86;51.40
78409;BME280;67697;50.750;-3.270;2023-04-25T00:44:33;100916.00;;;9.91;48.34
78409;BME280;67697;50.750;-3.270;2023-04-25T00:46:58;100920.16;;;7.72;52.17
78409;BME280;67697;50.750;-3.270;2023-04-25T00:49:24;100924.54;;;9.37;49.87
78409;BME280;67697;50.750;-3.270;2023-04-25T00:51:50;100935.04;;;8.51;51.30
78409;BME280;67697;50.750;-3.270;2023-04-25T00:54:16;100935.79;;;9.84;49.06
78409;BME280;67697;50.750;-3.270;2023-04-25T00:56:41;100936.33;;;9.81;48.05
78409;BME280;67697;50.750;-3.270;2023-04-25T00:59:06;100936.91;;;10.13;47.92
78409;BME280;67697;50.750;-3.270;2023-04-25T01:01:32;100934.59;;;9.94;48.34
78409;BME280;67697;50.750;-3.270;2023-04-25T01:03:58;100933.48;;;9.80;48.28
78409;BME280;67697;50.750;-3.270;2023-04-25T01:06:23;100932.89;;;9.03;49.97
78409;BME280;67697;50.750;-3.270;2023-04-25T01:08:48;100933.76;;;7.71;54.36
78409;BME280;67697;50.750;-3.270;2023-04-25T01:11:13;100935.69;;;8.25;52.37
78409;BME280;67697;50.750;-3.270;2023-04-25T01:13:38;100936.55;;;8.28;52.90
78409;BME280;67697;50.750;-3.270;2023-04-25T01:16:04;100933.48;;;7.91;53.46
78409;BME280;67697;50.750;-3.270;2023-04-25T01:18:29;100939.41;;;7.08;56.57
78409;BME280;67697;50.750;-3.270;2023-04-25T01:20:54;100935.18;;;7.49;55.88
78409;BME280;67697;50.750;-3.270;2023-04-25T01:23:21;100946.25;;;5.87;58.67
78409;BME280;67697;50.750;-3.270;2023-04-25T01:25:45;100945.83;;;5.67;59.68
78409;BME280;67697;50.750;-3.270;2023-04-25T01:28:10;100943.45;;;6.49;58.69
78409;BME280;67697;50.750;-3.270;2023-04-25T01:30:36;100945.05;;;6.54;58.97
78409;BME280;67697;50.750;-3.270;2023-04-25T01:33:03;100941.98;;;4.85;63.00
78409;BME280;67697;50.750;-3.270;2023-04-25T01:35:28;100937.77;;;6.57;58.76
78409;BME280;67697;50.750;-3.270;2023-04-25T01:37:53;100931.57;;;7.55;54.68
78409;BME280;67697;50.750;-3.270;2023-04-25T01:40:21;100942.86;;;5.60;59.75
78409;BME280;67697;50.750;-3.270;2023-04-25T01:42:44;100943.13;;;7.67;56.10
78409;BME280;67697;50.750;-3.270;2023-04-25T01:45:10;100947.73;;;8.17;54.48
78409;BME280;67697;50.750;-3.270;2023-04-25T01:47:36;100949.77;;;8.37;53.79
78409;BME280;67697;50.750;-3.270;2023-04-25T01:50:01;100954.24;;;8.80;52.98
78409;BME280;67697;50.750;-3.270;2023-04-25T01:52:26;100955.00;;;8.50;53.86
78409;BME280;67697;50.750;-3.270;2023-04-25T01:54:52;100960.26;;;9.17;52.34
78409;BME280;67697;50.750;-3.270;2023-04-25T01:57:17;100955.25;;;9.78;50.33
78409;BME280;67697;50.750;-3.270;2023-04-25T01:59:43;100961.07;;;8.18;53.44
78409;BME280;67697;50.750;-3.270;2023-04-25T02:02:08;100967.06;;;7.07;56.95
78409;BME280;67697;50.750;-3.270;2023-04-25T02:04:34;100975.47;;;5.84;58.67
78409;BME280;67697;50.750;-3.270;2023-04-25T02:06:59;100977.91;;;6.32;58.52
78409;BME280;67697;50.750;-3.270;2023-04-25T02:09:24;100974.00;;;8.67;53.74
78409;BME280;67697;50.750;-3.270;2023-04-25T02:11:50;100971.95;;;7.51;55.31
78409;BME280;67697;50.750;-3.270;2023-04-25T02:14:15;100971.15;;;8.22;54.13
78409;BME280;67697;50.750;-3.270;2023-04-25T02:16:41;100976.40;;;9.63;50.52
78409;BME280;67697;50.750;-3.270;2023-04-25T02:19:06;100991.54;;;5.12;59.92
78409;BME280;67697;50.750;-3.270;2023-04-25T02:21:32;100990.74;;;8.55;53.88
78409;BME280;67697;50.750;-3.270;2023-04-25T02:23:58;100994.59;;;9.13;51.38
78409;BME280;67697;50.750;-3.270;2023-04-25T02:26:23;100997.20;;;8.38;52.82
78409;BME280;67697;50.750;-3.270;2023-04-25T02:28:49;100995.92;;;8.08;53.52
78409;BME280;67697;50.750;-3.270;2023-04-25T02:31:14;100996.23;;;7.63;54.02
78409;BME280;67697;50.750;-3.270;2023-04-25T02:36:06;100993.18;;;8.91;52.08
78409;BME280;67697;50.750;-3.270;2023-04-25T02:38:30;100983.10;;;9.59;50.38
78409;BME280;67697;50.750;-3.270;2023-04-25T02:40:56;100988.68;;;6.68;56.32
78409;BME280;67697;50.750;-3.270;2023-04-25T02:43:22;100986.59;;;8.05;53.01
78409;BME280;67697;50.750;-3.270;2023-04-25T02:45:47;100989.64;;;7.50;54.38
78409;BME280;67697;50.750;-3.270;2023-04-25T02:48:13;100995.98;;;7.11;53.86
78409;BME280;67697;50.750;-3.270;2023-04-25T02:50:38;100987.38;;;7.71;54.78
78409;BME280;67697;50.750;-3.270;2023-04-25T02:53:05;100994.95;;;6.88;56.00
78409;BME280;67697;50.750;-3.270;2023-04-25T02:55:30;100991.68;;;8.98;52.38
78409;BME280;67697;50.750;-3.270;2023-04-25T02:57:56;100989.37;;;9.47;51.81
78409;BME280;67697;50.750;-3.270;2023-04-25T03:00:20;100995.05;;;8.97;52.13
78409;BME280;67697;50.750;-3.270;2023-04-25T03:02:45;100997.79;;;7.43;56.40
78409;BME280;67697;50.750;-3.270;2023-04-25T03:05:11;101000.59;;;6.66;58.90
78409;BME280;67697;50.750;-3.270;2023-04-25T03:07:37;100995.50;;;7.80;56.34
78409;BME280;67697;50.750;-3.270;2023-04-25T03:10:02;100996.59;;;8.56;54.61
78409;BME280;67697;50.750;-3.270;2023-04-25T03:12:27;101002.38;;;5.63;61.05
78409;BME280;67697;50.750;-3.270;2023-04-25T03:14:53;101005.26;;;6.48;59.68
78409;BME280;67697;50.750;-3.270;2023-04-25T03:17:18;101000.00;;;8.26;54.56
78409;BME280;67697;50.750;-3.270;2023-04-25T03:19:44;100999.69;;;7.81;55.52
78409;BME280;67697;50.750;-3.270;2023-04-25T03:22:09;100998.38;;;7.64;55.43
78409;BME280;67697;50.750;-3.270;2023-04-25T03:24:36;100999.41;;;7.46;56.94
78409;BME280;67697;50.750;-3.270;2023-04-25T03:27:01;101001.56;;;8.73;53.04
78409;BME280;67697;50.750;-3.270;2023-04-25T03:29:26;100999.38;;;9.41;50.73
78409;BME280;67697;50.750;-3.270;2023-04-25T03:31:52;101002.79;;;9.08;51.00
78409;BME280;67697;50.750;-3.270;2023-04-25T03:34:17;101003.53;;;7.37;55.14
78409;BME280;67697;50.750;-3.270;2023-04-25T03:36:44;100998.38;;;8.97;51.80
78409;BME280;67697;50.750;-3.270;2023-04-25T03:39:09;100997.61;;;9.64;50.11
78409;BME280;67697;50.750;-3.270;2023-04-25T03:41:35;101004.17;;;8.50;52.24
78409;BME280;67697;50.750;-3.270;2023-04-25T03:44:00;101004.78;;;10.08;49.05
78409;BME280;67697;50.750;-3.270;2023-04-25T03:46:25;101006.28;;;10.61;47.12
78409;BME280;67697;50.750;-3.270;2023-04-25T03:48:50;101009.96;;;10.44;48.21
78409;BME280;67697;50.750;-3.270;2023-04-25T03:51:16;101010.76;;;10.88;47.19
78409;BME280;67697;50.750;-3.270;2023-04-25T03:53:41;101012.40;;;11.01;46.97
78409;BME280;67697;50.750;-3.270;2023-04-25T03:56:07;101010.67;;;10.84;46.87
78409;BME280;67697;50.750;-3.270;2023-04-25T03:58:37;101012.22;;;10.09;48.24
78409;BME280;67697;50.750;-3.270;2023-04-25T04:00:57;101015.04;;;9.25;49.45
78409;BME280;67697;50.750;-3.270;2023-04-25T04:03:22;101015.65;;;9.90;49.17
78409;BME280;67697;50.750;-3.270;2023-04-25T04:05:48;101012.17;;;10.28;48.34
78409;BME280;67697;50.750;-3.270;2023-04-25T04:08:12;101016.96;;;10.04;49.07
78409;BME280;67697;50.750;-3.270;2023-04-25T04:10:38;101017.47;;;10.30;48.19
78409;BME280;67697;50.750;-3.270;2023-04-25T04:13:04;101016.84;;;10.95;46.60
78409;BME280;67697;50.750;-3.270;2023-04-25T04:15:30;101015.27;;;10.43;48.29
78409;BME280;67697;50.750;-3.270;2023-04-25T04:17:54;101020.23;;;8.54;51.08
78409;BME280;67697;50.750;-3.270;2023-04-25T04:20:19;101020.38;;;8.73;51.57
78409;BME280;67697;50.750;-3.270;2023-04-25T04:22:45;101023.08;;;9.07;50.24
78409;BME280;67697;50.750;-3.270;2023-04-25T04:25:10;101025.24;;;8.34;52.11
78409;BME280;67697;50.750;-3.270;2023-04-25T04:27:38;101033.00;;;6.94;54.53
78409;BME280;67697;50.750;-3.270;2023-04-25T04:30:02;101031.19;;;8.59;52.36
78409;BME280;67697;50.750;-3.270;2023-04-25T04:32:27;101042.17;;;6.45;53.02
78409;BME280;67697;50.750;-3.270;2023-04-25T04:34:52;101043.92;;;5.87;54.14
78409;BME280;67697;50.750;-3.270;2023-04-25T04:37:17;101041.25;;;6.92;52.21
78409;BME280;67697;50.750;-3.270;2023-04-25T04:39:43;101041.00;;;7.66;51.57
78409;BME280;67697;50.750;-3.270;2023-04-25T04:42:08;101052.00;;;6.79;52.84
78409;BME280;67697;50.750;-3.270;2023-04-25T04:44:33;101055.56;;;6.18;57.02
78409;BME280;67697;50.750;-3.270;2023-04-25T04:47:00;101061.76;;;5.78;59.52
78409;BME280;67697;50.750;-3.270;2023-04-25T04:49:25;101063.86;;;7.08;55.18
78409;BME280;67697;50.750;-3.270;2023-04-25T04:51:50;101062.12;;;8.32;53.83
78409;BME280;67697;50.750;-3.270;2023-04-25T04:54:15;101062.37;;;8.63;53.14
78409;BME280;67697;50.750;-3.270;2023-04-25T04:56:41;101068.71;;;8.40;53.45
78409;BME280;67697;50.750;-3.270;2023-04-25T04:59:07;101069.06;;;9.28;51.69
78409;BME280;67697;50.750;-3.270;2023-04-25T05:01:32;101068.85;;;9.15;52.56
78409;BME280;67697;50.750;-3.270;2023-04-25T05:03:59;101065.28;;;9.52;50.94
78409;BME280;67697;50.750;-3.270;2023-04-25T05:06:23;101070.52;;;8.30;54.12
78409;BME280;67697;50.750;-3.270;2023-04-25T05:08:48;101068.73;;;8.67;53.18
78409;BME280;67697;50.750;-3.270;2023-04-25T05:11:13;101075.37;;;8.45;53.66
78409;BME280;67697;50.750;-3.270;2023-04-25T05:13:38;101082.58;;;7.33;54.98
78409;BME280;67697;50.750;-3.270;2023-04-25T05:16:04;101082.80;;;6.66;58.24
78409;BME280;67697;50.750;-3.270;2023-04-25T05:18:30;101085.33;;;7.76;55.38
78409;BME280;67697;50.750;-3.270;2023-04-25T05:20:55;101088.51;;;8.04;54.01
78409;BME280;67697;50.750;-3.270;2023-04-25T05:23:20;101084.48;;;8.56;52.13
78409;BME280;67697;50.750;-3.270;2023-04-25T05:25:46;101091.39;;;6.99;54.77
78409;BME280;67697;50.750;-3.270;2023-04-25T05:28:12;101092.09;;;8.16;51.99
78409;BME280;67697;50.750;-3.270;2023-04-25T05:30:37;101094.08;;;7.82;52.02
78409;BME280;67697;50.750;-3.270;2023-04-25T05:33:03;101101.09;;;6.96;53.01
78409;BME280;67697;50.750;-3.270;2023-04-25T05:35:29;101099.28;;;6.57;54.71
78409;BME280;67697;50.750;-3.270;2023-04-25T05:37:54;101106.23;;;7.88;52.74
78409;BME280;67697;50.750;-3.270;2023-04-25T05:40:19;101109.26;;;7.69;52.57
78409;BME280;67697;50.750;-3.270;2023-04-25T05:42:46;101105.39;;;7.97;51.88
78409;BME280;67697;50.750;-3.270;2023-04-25T05:45:11;101105.06;;;8.69;50.16
78409;BME280;67697;50.750;-3.270;2023-04-25T05:47:37;101109.56;;;8.00;50.83
78409;BME280;67697;50.750;-3.270;2023-04-25T05:50:02;101113.05;;;7.71;52.49
78409;BME280;67697;50.750;-3.270;2023-04-25T05:52:29;101106.21;;;9.01;48.76
78409;BME280;67697;50.750;-3.270;2023-04-25T05:54:53;101110.89;;;7.86;50.72
78409;BME280;67697;50.750;-3.270;2023-04-25T05:57:20;101108.27;;;8.55;50.43
78409;BME280;67697;50.750;-3.270;2023-04-25T05:59:44;101106.56;;;8.73;50.72
78409;BME280;67697;50.750;-3.270;2023-04-25T06:02:14;101110.51;;;8.22;50.86
78409;BME280;67697;50.750;-3.270;2023-04-25T06:04:35;101114.14;;;8.88;49.67
78409;BME280;67697;50.750;-3.270;2023-04-25T06:07:00;101111.21;;;9.34;48.75
78409;BME280;67697;50.750;-3.270;2023-04-25T06:09:25;101113.49;;;9.45;48.27
78409;BME280;67697;50.750;-3.270;2023-04-25T06:11:50;101116.53;;;10.04;48.17
78409;BME280;67697;50.750;-3.270;2023-04-25T06:14:16;101117.73;;;9.31;48.46
78409;BME280;67697;50.750;-3.270;2023-04-25T06:16:41;101115.93;;;8.07;50.90
78409;BME280;67697;50.750;-3.270;2023-04-25T06:19:08;101116.02;;;6.85;55.88
78409;BME280;67697;50.750;-3.270;2023-04-25T06:21:33;101113.16;;;6.18;56.95
78409;BME280;67697;50.750;-3.270;2023-04-25T06:23:58;101111.40;;;6.82;55.77
78409;BME280;67697;50.750;-3.270;2023-04-25T06:26:24;101111.93;;;6.18;56.90
78409;BME280;67697;50.750;-3.270;2023-04-25T06:28:49;101110.53;;;5.67;56.79
78409;BME280;67697;50.750;-3.270;2023-04-25T06:31:15;101109.64;;;6.51;55.70
78409;BME280;67697;50.750;-3.270;2023-04-25T06:33:41;101111.44;;;6.71;54.49
78409;BME280;67697;50.750;-3.270;2023-04-25T06:36:07;101112.50;;;6.20;56.26
78409;BME280;67697;50.750;-3.270;2023-04-25T06:38:32;101117.22;;;5.95;58.21
78409;BME280;67697;50.750;-3.270;2023-04-25T06:40:57;101117.99;;;5.79;55.26
78409;BME280;67697;50.750;-3.270;2023-04-25T06:43:27;101124.49;;;4.87;59.30
78409;BME280;67697;50.750;-3.270;2023-04-25T06:45:48;101121.19;;;5.30;57.39
78409;BME280;67697;50.750;-3.270;2023-04-25T06:48:13;101120.30;;;5.69;57.03
78409;BME280;67697;50.750;-3.270;2023-04-25T06:50:39;101118.13;;;5.36;56.41
78409;BME280;67697;50.750;-3.270;2023-04-25T06:53:05;101119.27;;;5.29;57.80
78409;BME280;67697;50.750;-3.270;2023-04-25T06:55:31;101120.09;;;5.53;55.89
78409;BME280;67697;50.750;-3.270;2023-04-25T06:57:56;101124.27;;;6.09;55.17
78409;BME280;67697;50.750;-3.270;2023-04-25T07:00:22;101128.03;;;5.41;54.29
78409;BME280;67697;50.750;-3.270;2023-04-25T07:02:48;101131.40;;;4.16;58.58
78409;BME280;67697;50.750;-3.270;2023-04-25T07:05:13;101132.14;;;4.47;60.87
78409;BME280;67697;50.750;-3.270;2023-04-25T07:07:39;101128.59;;;5.20;54.95
78409;BME280;67697;50.750;-3.270;2023-04-25T07:10:05;101131.12;;;4.09;60.24
78409;BME280;67697;50.750;-3.270;2023-04-25T07:12:30;101130.93;;;5.51;56.98
78409;BME280;67697;50.750;-3.270;2023-04-25T07:14:56;101133.07;;;4.71;57.67
78409;BME280;67697;50.750;-3.270;2023-04-25T07:17:21;101133.88;;;4.49;58.03
78409;BME280;67697;50.750;-3.270;2023-04-25T07:19:47;101140.33;;;5.45;55.90
78409;BME280;67697;50.750;-3.270;2023-04-25T07:22:13;101136.80;;;6.52;52.80
78409;BME280;67697;50.750;-3.270;2023-04-25T07:24:39;101136.36;;;5.74;54.13
78409;BME280;67697;50.750;-3.270;2023-04-25T07:27:04;101136.35;;;4.51;59.25
78409;BME280;67697;50.750;-3.270;2023-04-25T07:29:30;101132.65;;;5.06;56.58
78409;BME280;67697;50.750;-3.270;2023-04-25T07:31:55;101137.19;;;4.95;59.91
78409;BME280;67697;50.750;-3.270;2023-04-25T07:34:21;101137.22;;;5.31;58.80
78409;BME280;67697;50.750;-3.270;2023-04-25T07:36:47;101136.50;;;5.57;56.79
78409;BME280;67697;50.750;-3.270;2023-04-25T07:46:29;101130.75;;;4.61;57.48
78409;BME280;67697;50.750;-3.270;2023-04-25T07:48:55;101127.79;;;6.14;57.25
78409;BME280;67697;50.750;-3.270;2023-04-25T07:51:20;101132.87;;;6.39;54.33
78409;BME280;67697;50.750;-3.270;2023-04-25T07:53:45;101130.68;;;6.53;53.96
78409;BME280;67697;50.750;-3.270;2023-04-25T07:56:11;101127.80;;;6.53;55.49
78409;BME280;67697;50.750;-3.270;2023-04-25T07:58:37;101123.64;;;6.12;54.04
78409;BME280;67697;50.750;-3.270;2023-04-25T08:01:02;101121.37;;;6.80;52.85
78409;BME280;67697;50.750;-3.270;2023-04-25T08:03:27;101120.35;;;6.07;52.87
78409;BME280;67697;50.750;-3.270;2023-04-25T08:05:53;101123.46;;;5.91;52.89
78409;BME280;67697;50.750;-3.270;2023-04-25T08:08:19;101124.10;;;6.21;52.82
78409;BME280;67697;50.750;-3.270;2023-04-25T08:10:44;101126.80;;;6.43;51.57
78409;BME280;67697;50.750;-3.270;2023-04-25T08:13:10;101131.78;;;6.10;52.73
78409;BME280;67697;50.750;-3.270;2023-04-25T08:15:38;101139.71;;;4.66;55.04
78409;BME280;67697;50.750;-3.270;2023-04-25T08:18:01;101141.30;;;5.35;53.56
78409;BME280;67697;50.750;-3.270;2023-04-25T08:20:27;101140.63;;;5.24;55.56
78409;BME280;67697;50.750;-3.270;2023-04-25T08:22:53;101143.82;;;5.84;53.95
78409;BME280;67697;50.750;-3.270;2023-04-25T08:25:19;101145.75;;;5.49;54.75
78409;BME280;67697;50.750;-3.270;2023-04-25T08:27:44;101153.14;;;5.89;53.05
78409;BME280;67697;50.750;-3.270;2023-04-25T08:30:11;101152.71;;;5.06;53.22
78409;BME280;67697;50.750;-3.270;2023-04-25T08:32:37;101148.96;;;5.85;54.09
78409;BME280;67697;50.750;-3.270;2023-04-25T08:35:02;101153.43;;;5.66;52.51
78409;BME280;67697;50.750;-3.270;2023-04-25T08:37:27;101150.64;;;5.99;47.95
78409;BME280;67697;50.750;-3.270;2023-04-25T08:39:53;101153.83;;;6.54;49.54
78409;BME280;67697;50.750;-3.270;2023-04-25T08:42:21;101162.79;;;6.49;50.74
78409;BME280;67697;50.750;-3.270;2023-04-25T08:44:45;101164.54;;;6.76;49.94
78409;BME280;67697;50.750;-3.270;2023-04-25T08:47:10;101163.83;;;6.35;51.21
78409;BME280;67697;50.750;-3.270;2023-04-25T08:49:38;101167.00;;;6.89;49.54
78409;BME280;67697;50.750;-3.270;2023-04-25T08:52:03;101167.79;;;6.01;50.00
78409;BME280;67697;50.750;-3.270;2023-04-25T08:54:28;101170.50;;;7.00;52.43
78409;BME280;67697;50.750;-3.270;2023-04-25T08:56:54;101172.36;;;6.80;51.11
78409;BME280;67697;50.750;-3.270;2023-04-25T08:59:20;101170.35;;;6.44;49.12
78409;BME280;67697;50.750;-3.270;2023-04-25T09:01:44;101172.88;;;6.91;46.61
78409;BME280;67697;50.750;-3.270;2023-04-25T09:04:15;101173.97;;;7.21;48.69
78409;BME280;67697;50.750;-3.270;2023-04-25T09:06:41;101171.43;;;7.82;48.44
78409;BME280;67697;50.750;-3.270;2023-04-25T09:09:03;101170.65;;;7.41;43.67
78409;BME280;67697;50.750;-3.270;2023-04-25T09:11:27;101170.89;;;7.21;48.65
78409;BME280;67697;50.750;-3.270;2023-04-25T09:16:19;101167.39;;;7.29;44.43
78409;BME280;67697;50.750;-3.270;2023-04-25T09:18:47;101166.87;;;7.01;45.01
78409;BME280;67697;50.750;-3.270;2023-04-25T09:21:15;101165.60;;;7.78;46.62
78409;BME280;67697;50.750;-3.270;2023-04-25T09:23:40;101167.45;;;7.61;44.69
78409;BME280;67697;50.750;-3.270;2023-04-25T09:26:01;101168.54;;;7.67;45.93
78409;BME280;67697;50.750;-3.270;2023-04-25T09:28:27;101168.28;;;7.76;45.47
78409;BME280;67697;50.750;-3.270;2023-04-25T09:30:55;101169.47;;;8.45;44.50
78409;BME280;67697;50.750;-3.270;2023-04-25T09:33:17;101173.11;;;7.49;45.43
78409;BME280;67697;50.750;-3.270;2023-04-25T09:35:44;101174.84;;;7.67;45.88
78409;BME280;67697;50.750;-3.270;2023-04-25T09:38:10;101174.09;;;7.78;44.26
78409;BME280;67697;50.750;-3.270;2023-04-25T09:40:39;101177.63;;;7.00;44.81
78409;BME280;67697;50.750;-3.270;2023-04-25T09:43:00;101177.59;;;7.33;44.86
78409;BME280;67697;50.750;-3.270;2023-04-25T09:45:27;101180.56;;;7.64;44.80
78409;BME280;67697;50.750;-3.270;2023-04-25T09:48:03;101176.01;;;7.55;39.99
78409;BME280;67697;50.750;-3.270;2023-04-25T09:50:18;101180.91;;;8.01;41.07
78409;BME280;67697;50.750;-3.270;2023-04-25T09:52:44;101180.09;;;7.23;46.00
78409;BME280;67697;50.750;-3.270;2023-04-25T09:55:09;101180.57;;;8.24;45.04
78409;BME280;67697;50.750;-3.270;2023-04-25T09:57:37;101181.56;;;7.06;43.42
78409;BME280;67697;50.750;-3.270;2023-04-25T10:00:01;101178.35;;;8.80;40.01
78409;BME280;67697;50.750;-3.270;2023-04-25T10:02:27;101179.72;;;7.92;40.88
78409;BME280;67697;50.750;-3.270;2023-04-25T10:04:53;101182.75;;;8.08;40.56
78409;BME280;67697;50.750;-3.270;2023-04-25T10:07:18;101190.55;;;8.26;38.09
78409;BME280;67697;50.750;-3.270;2023-04-25T10:09:43;101185.61;;;7.15;40.14
78409;BME280;67697;50.750;-3.270;2023-04-25T10:12:09;101189.59;;;7.95;42.60
78409;BME280;67697;50.750;-3.270;2023-04-25T10:14:35;101184.70;;;6.99;39.70
78409;BME280;67697;50.750;-3.270;2023-04-25T10:17:01;101186.92;;;7.47;39.35
78409;BME280;67697;50.750;-3.270;2023-04-25T10:19:33;101188.11;;;7.42;37.22
78409;BME280;67697;50.750;-3.270;2023-04-25T10:21:54;101188.74;;;8.04;39.38
78409;BME280;67697;50.750;-3.270;2023-04-25T10:24:17;101195.06;;;8.07;38.08
78409;BME280;67697;50.750;-3.270;2023-04-25T10:26:43;101195.94;;;7.62;38.11
78409;BME280;67697;50.750;-3.270;2023-04-25T10:29:09;101195.54;;;8.42;36.71
78409;BME280;67697;50.750;-3.270;2023-04-25T10:31:44;101200.99;;;7.86;40.66
78409;BME280;67697;50.750;-3.270;2023-04-25T10:34:00;101197.78;;;7.91;37.09
78409;BME280;67697;50.750;-3.270;2023-04-25T10:36:25;101194.74;;;8.29;41.32
78409;BME280;67697;50.750;-3.270;2023-04-25T10:38:52;101193.83;;;9.11;38.46
78409;BME280;67697;50.750;-3.270;2023-04-25T10:41:18;101196.12;;;9.84;35.31
78409;BME280;67697;50.750;-3.270;2023-04-25T10:43:44;101199.46;;;8.05;39.82
78409;BME280;67697;50.750;-3.270;2023-04-25T10:46:16;101202.29;;;8.72;41.02
78409;BME280;67697;50.750;-3.270;2023-04-25T10:48:34;101196.64;;;9.21;41.55
78409;BME280;67697;50.750;-3.270;2023-04-25T10:51:08;101195.02;;;8.67;40.41
78409;BME280;67697;50.750;-3.270;2023-04-25T10:53:25;101191.51;;;8.77;36.17
78409;BME280;67697;50.750;-3.270;2023-04-25T10:55:51;101192.33;;;9.56;36.60
78409;BME280;67697;50.750;-3.270;2023-04-25T10:58:22;101193.92;;;8.65;42.27
78409;BME280;67697;50.750;-3.270;2023-04-25T11:00:42;101193.41;;;9.11;42.14
78409;BME280;67697;50.750;-3.270;2023-04-25T11:03:08;101189.56;;;8.74;43.43
78409;BME280;67697;50.750;-3.270;2023-04-25T11:05:37;101200.55;;;8.52;43.12
78409;BME280;67697;50.750;-3.270;2023-04-25T11:08:01;101204.01;;;9.29;42.84
78409;BME280;67697;50.750;-3.270;2023-04-25T11:10:26;101201.97;;;9.65;49.08
78409;BME280;67697;50.750;-3.270;2023-04-25T11:12:51;101195.51;;;9.35;50.41
78409;BME280;67697;50.750;-3.270;2023-04-25T11:15:17;101191.04;;;10.37;48.77
78409;BME280;67697;50.750;-3.270;2023-04-25T11:17:42;101180.14;;;10.89;46.71
78409;BME280;67697;50.750;-3.270;2023-04-25T11:20:08;101182.99;;;10.90;48.21
78409;BME280;67697;50.750;-3.270;2023-04-25T11:22:39;101184.66;;;10.75;42.82
78409;BME280;67697;50.750;-3.270;2023-04-25T11:25:05;101192.75;;;10.41;49.21
78409;BME280;67697;50.750;-3.270;2023-04-25T11:27:24;101187.25;;;11.04;44.35
78409;BME280;67697;50.750;-3.270;2023-04-25T11:29:50;101188.15;;;10.93;43.01
78409;BME280;67697;50.750;-3.270;2023-04-25T11:32:17;101190.63;;;11.33;47.59
78409;BME280;67697;50.750;-3.270;2023-04-25T11:34:45;101193.34;;;10.76;43.07
78409;BME280;67697;50.750;-3.270;2023-04-25T11:37:07;101188.67;;;11.22;41.06
78409;BME280;67697;50.750;-3.270;2023-04-25T11:39:32;101193.77;;;11.99;45.04
78409;BME280;67697;50.750;-3.270;2023-04-25T11:41:58;101188.40;;;11.90;41.42
78409;BME280;67697;50.750;-3.270;2023-04-25T11:44:24;101186.02;;;12.04;43.53
78409;BME280;67697;50.750;-3.270;2023-04-25T11:46:49;101185.36;;;11.43;47.82
78409;BME280;67697;50.750;-3.270;2023-04-25T11:49:15;101183.23;;;11.11;46.65
78409;BME280;67697;50.750;-3.270;2023-04-25T11:51:43;101182.61;;;11.31;45.64
78409;BME280;67697;50.750;-3.270;2023-04-25T11:54:06;101179.55;;;11.53;48.23
78409;BME280;67697;50.750;-3.270;2023-04-25T11:56:32;101182.70;;;11.47;47.13
78409;BME280;67697;50.750;-3.270;2023-04-25T11:58:59;101180.98;;;10.96;45.91
78409;BME280;67697;50.750;-3.270;2023-04-25T12:01:28;101180.68;;;11.87;43.41
78409;BME280;67697;50.750;-3.270;2023-04-25T12:03:49;101178.46;;;11.43;47.67
78409;BME280;67697;50.750;-3.270;2023-04-25T12:06:17;101183.45;;;9.62;45.83
78409;BME280;67697;50.750;-3.270;2023-04-25T12:13:31;101181.15;;;12.18;43.23
78409;BME280;67697;50.750;-3.270;2023-04-25T12:15:57;101180.39;;;11.10;42.00
78409;BME280;67697;50.750;-3.270;2023-04-25T12:18:24;101182.04;;;11.27;42.53
78409;BME280;67697;50.750;-3.270;2023-04-25T12:20:48;101178.48;;;11.37;44.91
78409;BME280;67697;50.750;-3.270;2023-04-25T12:23:14;101175.64;;;11.94;46.92
78409;BME280;67697;50.750;-3.270;2023-04-25T12:25:41;101177.59;;;9.80;42.07
78409;BME280;67697;50.750;-3.270;2023-04-25T12:28:13;101169.40;;;12.11;42.46
78409;BME280;67697;50.750;-3.270;2023-04-25T12:30:31;101163.24;;;11.73;45.65
78409;BME280;67697;50.750;-3.270;2023-04-25T12:32:57;101163.51;;;11.51;44.73
78409;BME280;67697;50.750;-3.270;2023-04-25T12:35:22;101161.43;;;11.38;47.67
78409;BME280;67697;50.750;-3.270;2023-04-25T12:37:47;101165.98;;;11.52;46.50
78409;BME280;67697;50.750;-3.270;2023-04-25T12:40:13;101167.28;;;11.10;44.71
78409;BME280;67697;50.750;-3.270;2023-04-25T12:42:38;101172.12;;;10.46;47.56
78409;BME280;67697;50.750;-3.270;2023-04-25T12:45:05;101172.34;;;10.85;46.07
78409;BME280;67697;50.750;-3.270;2023-04-25T12:47:30;101174.26;;;10.52;46.99
78409;BME280;67697;50.750;-3.270;2023-04-25T12:49:55;101167.42;;;11.13;44.69
78409;BME280;67697;50.750;-3.270;2023-04-25T12:52:31;101170.56;;;10.92;44.67
78409;BME280;67697;50.750;-3.270;2023-04-25T12:54:47;101172.27;;;10.59;45.01